sensor_id;sensor_type;location;lat;lon;timestamp;P1;durP1;ratioP1;P2;durP2;ratioP2
15629;SDS011;7914;50.842;0.166;2023-06-26T00:00:34;3.13;;;1.27;;
15629;SDS011;7914;50.842;0.166;2023-06-26T00:02:59;4.70;;;1.20;;
15629;SDS011;7914;50.842;0.166;2023-06-26T00:05:25;2.35;;;1.10;;
15629;SDS011;7914;50.842;0.166;2023-06-26T00:07:52;3.67;;;1.23;;
15629;SDS011;7914;50.842;0.166;2023-06-26T00:10:20;7.15;;;1.58;;
15629;SDS011;7914;50.842;0.166;2023-06-26T00:12:46;4.07;;;0.85;;
15629;SDS011;7914;50.842;0.166;2023-06-26T00:15:12;4.90;;;1.23;;
15629;SDS011;7914;50.842;0.166;2023-06-26T00:17:37;3.45;;;1.13;;
15629;SDS011;7914;50.842;0.166;2023-06-26T00:20:03;3.50;;;1.20;;
15629;SDS011;7914;50.842;0.166;2023-06-26T00:22:33;4.03;;;1.10;;
15629;SDS011;7914;50.842;0.166;2023-06-26T00:24:58;2.80;;;1.15;;
15629;SDS011;7914;50.842;0.166;2023-06-26T00:27:24;8.45;;;1.80;;
15629;SDS011;7914;50.842;0.166;2023-06-26T00:29:50;4.53;;;0.93;;
15629;SDS011;7914;50.842;0.166;2023-06-26T00:32:17;3.35;;;1.17;;
15629;SDS011;7914;50.842;0.166;2023-06-26T00:34:43;5.05;;;2.95;;
15629;SDS011;7914;50.842;0.166;2023-06-26T00:37:09;4.15;;;1.20;;
15629;SDS011;7914;50.842;0.166;2023-06-26T00:39:34;5.45;;;0.98;;
15629;SDS011;7914;50.842;0.166;2023-06-26T00:42:00;4.85;;;1.15;;
15629;SDS011;7914;50.842;0.166;2023-06-26T00:44:26;5.22;;;1.30;;
15629;SDS011;7914;50.842;0.166;2023-06-26T00:46:51;4.20;;;1.15;;
15629;SDS011;7914;50.842;0.166;2023-06-26T00:49:17;4.47;;;1.30;;
15629;SDS011;7914;50.842;0.166;2023-06-26T00:51:43;2.95;;;1.10;;
15629;SDS011;7914;50.842;0.166;2023-06-26T00:54:09;5.63;;;1.17;;
15629;SDS011;7914;50.842;0.166;2023-06-26T00:56:35;7.35;;;1.35;;
15629;SDS011;7914;50.842;0.166;2023-06-26T00:59:02;4.93;;;1.60;;
15629;SDS011;7914;50.842;0.166;2023-06-26T01:01:28;5.93;;;1.40;;
15629;SDS011;7914;50.842;0.166;2023-06-26T01:03:53;4.10;;;1.42;;
15629;SDS011;7914;50.842;0.166;2023-06-26T01:06:20;6.25;;;1.40;;
15629;SDS011;7914;50.842;0.166;2023-06-26T01:08:49;5.70;;;1.45;;
15629;SDS011;7914;50.842;0.166;2023-06-26T01:11:16;4.15;;;1.58;;
15629;SDS011;7914;50.842;0.166;2023-06-26T01:13:42;6.60;;;1.40;;
15629;SDS011;7914;50.842;0.166;2023-06-26T01:16:11;7.47;;;1.80;;
15629;SDS011;7914;50.842;0.166;2023-06-26T01:18:38;6.53;;;2.33;;
15629;SDS011;7914;50.842;0.166;2023-06-26T01:21:07;5.43;;;1.38;;
15629;SDS011;7914;50.842;0.166;2023-06-26T01:26:28;6.13;;;1.55;;
15629;SDS011;7914;50.842;0.166;2023-06-26T01:28:56;5.30;;;1.90;;
15629;SDS011;7914;50.842;0.166;2023-06-26T01:31:26;7.05;;;1.60;;
15629;SDS011;7914;50.842;0.166;2023-06-26T01:33:53;5.93;;;1.40;;
15629;SDS011;7914;50.842;0.166;2023-06-26T01:36:20;5.75;;;2.50;;
15629;SDS011;7914;50.842;0.166;2023-06-26T01:38:47;9.90;;;2.17;;
15629;SDS011;7914;50.842;0.166;2023-06-26T01:41:12;8.43;;;2.00;;
15629;SDS011;7914;50.842;0.166;2023-06-26T01:46:24;8.82;;;2.00;;
15629;SDS011;7914;50.842;0.166;2023-06-26T01:48:55;6.03;;;1.88;;
15629;SDS011;7914;50.842;0.166;2023-06-26T01:51:32;6.00;;;1.60;;
15629;SDS011;7914;50.842;0.166;2023-06-26T01:54:23;5.43;;;1.85;;
15629;SDS011;7914;50.842;0.166;2023-06-26T01:56:51;5.82;;;1.58;;
15629;SDS011;7914;50.842;0.166;2023-06-26T01:59:19;7.22;;;2.55;;
15629;SDS011;7914;50.842;0.166;2023-06-26T02:01:46;8.07;;;1.88;;
15629;SDS011;7914;50.842;0.166;2023-06-26T02:04:12;9.07;;;1.77;;
15629;SDS011;7914;50.842;0.166;2023-06-26T02:06:38;7.03;;;1.50;;
15629;SDS011;7914;50.842;0.166;2023-06-26T02:09:03;4.68;;;2.00;;
15629;SDS011;7914;50.842;0.166;2023-06-26T02:11:29;7.40;;;1.85;;
15629;SDS011;7914;50.842;0.166;2023-06-26T02:13:55;9.25;;;1.95;;
15629;SDS011;7914;50.842;0.166;2023-06-26T02:16:20;11.05;;;4.40;;
15629;SDS011;7914;50.842;0.166;2023-06-26T02:18:46;10.48;;;2.03;;
15629;SDS011;7914;50.842;0.166;2023-06-26T02:21:12;10.57;;;1.73;;
15629;SDS011;7914;50.842;0.166;2023-06-26T02:23:38;8.07;;;1.65;;
15629;SDS011;7914;50.842;0.166;2023-06-26T02:26:04;7.65;;;1.77;;
15629;SDS011;7914;50.842;0.166;2023-06-26T02:28:29;7.22;;;1.70;;
15629;SDS011;7914;50.842;0.166;2023-06-26T02:30:56;6.72;;;2.20;;
15629;SDS011;7914;50.842;0.166;2023-06-26T02:33:22;7.82;;;1.70;;
15629;SDS011;7914;50.842;0.166;2023-06-26T02:35:47;5.72;;;1.60;;
15629;SDS011;7914;50.842;0.166;2023-06-26T02:38:15;7.82;;;1.70;;
15629;SDS011;7914;50.842;0.166;2023-06-26T02:40:41;7.40;;;1.77;;
15629;SDS011;7914;50.842;0.166;2023-06-26T02:43:07;6.93;;;2.00;;
15629;SDS011;7914;50.842;0.166;2023-06-26T02:45:32;8.18;;;1.77;;
15629;SDS011;7914;50.842;0.166;2023-06-26T02:47:58;12.38;;;2.45;;
15629;SDS011;7914;50.842;0.166;2023-06-26T02:50:24;7.13;;;3.05;;
15629;SDS011;7914;50.842;0.166;2023-06-26T02:52:49;7.45;;;2.10;;
15629;SDS011;7914;50.842;0.166;2023-06-26T02:55:18;9.27;;;1.88;;
15629;SDS011;7914;50.842;0.166;2023-06-26T02:57:44;7.03;;;1.90;;
15629;SDS011;7914;50.842;0.166;2023-06-26T03:00:10;4.30;;;1.65;;
15629;SDS011;7914;50.842;0.166;2023-06-26T03:02:37;8.00;;;1.45;;
15629;SDS011;7914;50.842;0.166;2023-06-26T03:05:03;8.23;;;2.10;;
15629;SDS011;7914;50.842;0.166;2023-06-26T03:07:29;5.47;;;1.70;;
15629;SDS011;7914;50.842;0.166;2023-06-26T03:09:55;10.20;;;2.38;;
15629;SDS011;7914;50.842;0.166;2023-06-26T03:12:20;5.88;;;1.95;;
15629;SDS011;7914;50.842;0.166;2023-06-26T03:14:46;7.50;;;3.03;;
15629;SDS011;7914;50.842;0.166;2023-06-26T03:17:12;6.85;;;1.80;;
15629;SDS011;7914;50.842;0.166;2023-06-26T03:19:38;6.68;;;2.10;;
15629;SDS011;7914;50.842;0.166;2023-06-26T03:22:03;6.03;;;1.75;;
15629;SDS011;7914;50.842;0.166;2023-06-26T03:24:29;7.63;;;1.67;;
15629;SDS011;7914;50.842;0.166;2023-06-26T03:26:55;6.53;;;1.88;;
15629;SDS011;7914;50.842;0.166;2023-06-26T03:29:20;7.10;;;2.65;;
15629;SDS011;7914;50.842;0.166;2023-06-26T03:31:46;9.20;;;1.90;;
15629;SDS011;7914;50.842;0.166;2023-06-26T03:34:12;7.60;;;1.73;;
15629;SDS011;7914;50.842;0.166;2023-06-26T03:36:37;8.35;;;1.67;;
15629;SDS011;7914;50.842;0.166;2023-06-26T03:39:03;5.15;;;1.75;;
15629;SDS011;7914;50.842;0.166;2023-06-26T03:41:29;7.82;;;1.88;;
15629;SDS011;7914;50.842;0.166;2023-06-26T03:43:55;5.85;;;1.50;;
15629;SDS011;7914;50.842;0.166;2023-06-26T03:46:21;8.52;;;1.90;;
15629;SDS011;7914;50.842;0.166;2023-06-26T03:48:47;8.23;;;2.10;;
15629;SDS011;7914;50.842;0.166;2023-06-26T03:51:14;5.13;;;1.63;;
15629;SDS011;7914;50.842;0.166;2023-06-26T03:53:40;6.15;;;1.92;;
15629;SDS011;7914;50.842;0.166;2023-06-26T03:56:05;10.43;;;2.17;;
15629;SDS011;7914;50.842;0.166;2023-06-26T03:58:31;4.90;;;1.70;;
15629;SDS011;7914;50.842;0.166;2023-06-26T04:00:57;7.30;;;1.65;;
15629;SDS011;7914;50.842;0.166;2023-06-26T04:03:23;6.50;;;1.75;;
15629;SDS011;7914;50.842;0.166;2023-06-26T04:05:49;3.30;;;1.35;;
15629;SDS011;7914;50.842;0.166;2023-06-26T04:08:14;5.65;;;1.70;;
15629;SDS011;7914;50.842;0.166;2023-06-26T04:10:40;7.75;;;1.55;;
15629;SDS011;7914;50.842;0.166;2023-06-26T04:13:06;8.45;;;2.00;;
15629;SDS011;7914;50.842;0.166;2023-06-26T04:15:31;7.15;;;1.67;;
15629;SDS011;7914;50.842;0.166;2023-06-26T04:17:57;4.57;;;1.60;;
15629;SDS011;7914;50.842;0.166;2023-06-26T04:20:23;8.70;;;2.55;;
15629;SDS011;7914;50.842;0.166;2023-06-26T04:22:48;6.07;;;2.00;;
15629;SDS011;7914;50.842;0.166;2023-06-26T04:25:14;8.75;;;1.80;;
15629;SDS011;7914;50.842;0.166;2023-06-26T04:27:40;6.85;;;1.80;;
15629;SDS011;7914;50.842;0.166;2023-06-26T04:30:06;3.58;;;1.58;;
15629;SDS011;7914;50.842;0.166;2023-06-26T04:32:32;7.07;;;2.00;;
15629;SDS011;7914;50.842;0.166;2023-06-26T04:34:58;7.28;;;1.90;;
15629;SDS011;7914;50.842;0.166;2023-06-26T04:37:24;5.53;;;1.40;;
15629;SDS011;7914;50.842;0.166;2023-06-26T04:39:50;8.73;;;2.55;;
15629;SDS011;7914;50.842;0.166;2023-06-26T04:42:16;4.38;;;1.50;;
15629;SDS011;7914;50.842;0.166;2023-06-26T04:44:42;7.70;;;1.90;;
15629;SDS011;7914;50.842;0.166;2023-06-26T04:47:08;7.13;;;1.60;;
15629;SDS011;7914;50.842;0.166;2023-06-26T04:49:34;5.03;;;1.70;;
15629;SDS011;7914;50.842;0.166;2023-06-26T04:51:59;9.57;;;2.00;;
15629;SDS011;7914;50.842;0.166;2023-06-26T04:54:25;5.45;;;1.60;;
15629;SDS011;7914;50.842;0.166;2023-06-26T04:56:51;4.63;;;1.73;;
15629;SDS011;7914;50.842;0.166;2023-06-26T04:59:17;7.88;;;1.67;;
15629;SDS011;7914;50.842;0.166;2023-06-26T05:01:43;9.07;;;1.88;;
15629;SDS011;7914;50.842;0.166;2023-06-26T05:04:13;8.02;;;1.88;;
15629;SDS011;7914;50.842;0.166;2023-06-26T05:06:39;5.47;;;1.60;;
15629;SDS011;7914;50.842;0.166;2023-06-26T05:09:04;6.47;;;1.50;;
15629;SDS011;7914;50.842;0.166;2023-06-26T05:11:30;4.85;;;1.40;;
15629;SDS011;7914;50.842;0.166;2023-06-26T05:13:56;4.65;;;1.35;;
15629;SDS011;7914;50.842;0.166;2023-06-26T05:16:21;4.68;;;1.73;;
15629;SDS011;7914;50.842;0.166;2023-06-26T05:18:47;5.85;;;1.42;;
15629;SDS011;7914;50.842;0.166;2023-06-26T05:21:13;6.45;;;1.58;;
15629;SDS011;7914;50.842;0.166;2023-06-26T05:23:38;7.70;;;2.42;;
15629;SDS011;7914;50.842;0.166;2023-06-26T05:26:04;7.40;;;1.70;;
15629;SDS011;7914;50.842;0.166;2023-06-26T05:28:30;4.47;;;1.20;;
15629;SDS011;7914;50.842;0.166;2023-06-26T05:30:57;3.85;;;1.05;;
15629;SDS011;7914;50.842;0.166;2023-06-26T05:33:24;6.00;;;1.35;;
15629;SDS011;7914;50.842;0.166;2023-06-26T05:35:52;7.90;;;1.63;;
15629;SDS011;7914;50.842;0.166;2023-06-26T05:38:18;5.35;;;1.30;;
15629;SDS011;7914;50.842;0.166;2023-06-26T05:40:45;9.45;;;1.70;;
15629;SDS011;7914;50.842;0.166;2023-06-26T05:43:10;10.20;;;1.73;;
15629;SDS011;7914;50.842;0.166;2023-06-26T05:45:36;7.10;;;1.88;;
15629;SDS011;7914;50.842;0.166;2023-06-26T05:48:02;5.47;;;1.25;;
15629;SDS011;7914;50.842;0.166;2023-06-26T05:50:28;6.18;;;1.45;;
15629;SDS011;7914;50.842;0.166;2023-06-26T05:52:54;7.00;;;1.48;;
15629;SDS011;7914;50.842;0.166;2023-06-26T05:55:20;7.30;;;1.85;;
15629;SDS011;7914;50.842;0.166;2023-06-26T05:57:46;7.03;;;1.48;;
15629;SDS011;7914;50.842;0.166;2023-06-26T06:00:13;7.32;;;1.98;;
15629;SDS011;7914;50.842;0.166;2023-06-26T06:02:40;5.97;;;1.85;;
15629;SDS011;7914;50.842;0.166;2023-06-26T06:05:07;7.03;;;1.52;;
15629;SDS011;7914;50.842;0.166;2023-06-26T06:07:33;5.88;;;1.67;;
15629;SDS011;7914;50.842;0.166;2023-06-26T06:09:59;5.70;;;1.35;;
15629;SDS011;7914;50.842;0.166;2023-06-26T06:12:25;6.50;;;1.42;;
15629;SDS011;7914;50.842;0.166;2023-06-26T06:14:52;9.30;;;1.80;;
15629;SDS011;7914;50.842;0.166;2023-06-26T06:17:19;9.18;;;1.73;;
15629;SDS011;7914;50.842;0.166;2023-06-26T06:19:45;10.23;;;1.88;;
15629;SDS011;7914;50.842;0.166;2023-06-26T06:22:11;10.13;;;1.80;;
15629;SDS011;7914;50.842;0.166;2023-06-26T06:24:37;7.95;;;2.00;;
15629;SDS011;7914;50.842;0.166;2023-06-26T06:27:03;10.48;;;2.75;;
15629;SDS011;7914;50.842;0.166;2023-06-26T06:29:28;8.85;;;1.65;;
15629;SDS011;7914;50.842;0.166;2023-06-26T06:31:54;10.15;;;1.80;;
15629;SDS011;7914;50.842;0.166;2023-06-26T06:34:20;8.13;;;1.77;;
15629;SDS011;7914;50.842;0.166;2023-06-26T06:36:46;8.60;;;2.30;;
15629;SDS011;7914;50.842;0.166;2023-06-26T06:39:12;6.10;;;1.60;;
15629;SDS011;7914;50.842;0.166;2023-06-26T06:41:38;9.35;;;2.20;;
15629;SDS011;7914;50.842;0.166;2023-06-26T06:44:03;5.50;;;1.50;;
15629;SDS011;7914;50.842;0.166;2023-06-26T06:46:29;6.72;;;1.65;;
15629;SDS011;7914;50.842;0.166;2023-06-26T06:48:55;6.75;;;1.83;;
15629;SDS011;7914;50.842;0.166;2023-06-26T06:51:21;8.75;;;1.63;;
15629;SDS011;7914;50.842;0.166;2023-06-26T06:53:47;8.38;;;1.42;;
15629;SDS011;7914;50.842;0.166;2023-06-26T06:56:13;8.65;;;1.70;;
15629;SDS011;7914;50.842;0.166;2023-06-26T06:58:39;9.73;;;1.75;;
15629;SDS011;7914;50.842;0.166;2023-06-26T07:01:07;7.03;;;1.50;;
15629;SDS011;7914;50.842;0.166;2023-06-26T07:03:34;8.95;;;1.63;;
15629;SDS011;7914;50.842;0.166;2023-06-26T07:06:00;6.80;;;1.50;;
15629;SDS011;7914;50.842;0.166;2023-06-26T07:08:26;7.20;;;1.67;;
15629;SDS011;7914;50.842;0.166;2023-06-26T07:10:52;4.90;;;1.50;;
15629;SDS011;7914;50.842;0.166;2023-06-26T07:13:17;7.05;;;1.58;;
15629;SDS011;7914;50.842;0.166;2023-06-26T07:15:45;5.18;;;1.40;;
15629;SDS011;7914;50.842;0.166;2023-06-26T07:18:10;7.78;;;1.50;;
15629;SDS011;7914;50.842;0.166;2023-06-26T07:20:36;6.95;;;1.75;;
15629;SDS011;7914;50.842;0.166;2023-06-26T07:23:02;6.18;;;1.60;;
15629;SDS011;7914;50.842;0.166;2023-06-26T07:25:27;6.90;;;1.67;;
15629;SDS011;7914;50.842;0.166;2023-06-26T07:27:53;8.95;;;1.88;;
15629;SDS011;7914;50.842;0.166;2023-06-26T07:30:18;7.10;;;1.73;;
15629;SDS011;7914;50.842;0.166;2023-06-26T07:32:44;6.80;;;1.58;;
15629;SDS011;7914;50.842;0.166;2023-06-26T07:35:10;8.90;;;1.75;;
15629;SDS011;7914;50.842;0.166;2023-06-26T07:37:36;5.90;;;1.70;;
15629;SDS011;7914;50.842;0.166;2023-06-26T07:40:01;7.53;;;1.65;;
15629;SDS011;7914;50.842;0.166;2023-06-26T07:42:27;5.47;;;1.75;;
15629;SDS011;7914;50.842;0.166;2023-06-26T07:44:53;7.90;;;1.80;;
15629;SDS011;7914;50.842;0.166;2023-06-26T07:47:19;6.90;;;1.83;;
15629;SDS011;7914;50.842;0.166;2023-06-26T07:49:45;8.40;;;2.10;;
15629;SDS011;7914;50.842;0.166;2023-06-26T07:52:10;6.10;;;1.30;;
15629;SDS011;7914;50.842;0.166;2023-06-26T07:54:36;7.97;;;1.85;;
15629;SDS011;7914;50.842;0.166;2023-06-26T07:57:03;5.40;;;1.58;;
15629;SDS011;7914;50.842;0.166;2023-06-26T07:59:33;7.80;;;2.20;;
15629;SDS011;7914;50.842;0.166;2023-06-26T08:02:00;5.50;;;1.77;;
15629;SDS011;7914;50.842;0.166;2023-06-26T08:04:27;8.00;;;1.80;;
15629;SDS011;7914;50.842;0.166;2023-06-26T08:06:56;8.02;;;2.40;;
15629;SDS011;7914;50.842;0.166;2023-06-26T08:09:23;6.60;;;2.08;;
15629;SDS011;7914;50.842;0.166;2023-06-26T08:11:54;4.55;;;1.50;;
15629;SDS011;7914;50.842;0.166;2023-06-26T08:14:20;8.98;;;1.90;;
15629;SDS011;7914;50.842;0.166;2023-06-26T08:16:46;5.68;;;1.55;;
15629;SDS011;7914;50.842;0.166;2023-06-26T08:19:13;6.65;;;1.63;;
15629;SDS011;7914;50.842;0.166;2023-06-26T08:21:40;6.72;;;1.73;;
15629;SDS011;7914;50.842;0.166;2023-06-26T08:24:06;6.60;;;1.80;;
15629;SDS011;7914;50.842;0.166;2023-06-26T08:26:33;8.95;;;1.73;;
15629;SDS011;7914;50.842;0.166;2023-06-26T08:28:59;7.38;;;1.50;;
15629;SDS011;7914;50.842;0.166;2023-06-26T08:31:25;6.97;;;1.70;;
15629;SDS011;7914;50.842;0.166;2023-06-26T08:33:50;7.28;;;1.77;;
15629;SDS011;7914;50.842;0.166;2023-06-26T08:36:16;9.25;;;1.70;;
15629;SDS011;7914;50.842;0.166;2023-06-26T08:38:42;6.15;;;1.52;;
15629;SDS011;7914;50.842;0.166;2023-06-26T08:41:08;6.03;;;1.42;;
15629;SDS011;7914;50.842;0.166;2023-06-26T08:43:34;8.07;;;1.42;;
15629;SDS011;7914;50.842;0.166;2023-06-26T08:46:00;7.57;;;1.67;;
15629;SDS011;7914;50.842;0.166;2023-06-26T08:48:26;5.78;;;1.33;;
15629;SDS011;7914;50.842;0.166;2023-06-26T08:50:57;6.25;;;1.40;;
15629;SDS011;7914;50.842;0.166;2023-06-26T08:54:12;6.05;;;1.45;;
15629;SDS011;7914;50.842;0.166;2023-06-26T08:56:44;5.28;;;1.40;;
15629;SDS011;7914;50.842;0.166;2023-06-26T08:59:12;4.88;;;1.45;;
15629;SDS011;7914;50.842;0.166;2023-06-26T09:01:39;6.18;;;1.48;;
15629;SDS011;7914;50.842;0.166;2023-06-26T09:04:06;5.28;;;1.20;;
15629;SDS011;7914;50.842;0.166;2023-06-26T09:06:32;4.47;;;1.30;;
15629;SDS011;7914;50.842;0.166;2023-06-26T09:08:58;7.90;;;1.40;;
15629;SDS011;7914;50.842;0.166;2023-06-26T09:11:24;3.83;;;1.20;;
15629;SDS011;7914;50.842;0.166;2023-06-26T09:13:53;7.57;;;1.40;;
15629;SDS011;7914;50.842;0.166;2023-06-26T09:16:23;5.95;;;1.65;;
15629;SDS011;7914;50.842;0.166;2023-06-26T09:18:52;5.80;;;1.20;;
15629;SDS011;7914;50.842;0.166;2023-06-26T09:24:17;5.68;;;1.23;;
15629;SDS011;7914;50.842;0.166;2023-06-26T09:26:43;5.13;;;1.20;;
15629;SDS011;7914;50.842;0.166;2023-06-26T09:29:09;5.70;;;1.50;;
15629;SDS011;7914;50.842;0.166;2023-06-26T09:31:38;4.75;;;1.20;;
15629;SDS011;7914;50.842;0.166;2023-06-26T09:34:04;7.57;;;1.60;;
15629;SDS011;7914;50.842;0.166;2023-06-26T09:36:31;8.30;;;1.73;;
15629;SDS011;7914;50.842;0.166;2023-06-26T09:39:05;5.97;;;1.52;;
15629;SDS011;7914;50.842;0.166;2023-06-26T09:41:43;5.03;;;1.17;;
15629;SDS011;7914;50.842;0.166;2023-06-26T09:44:16;4.88;;;2.30;;
15629;SDS011;7914;50.842;0.166;2023-06-26T09:46:44;7.72;;;1.35;;
15629;SDS011;7914;50.842;0.166;2023-06-26T09:49:10;3.90;;;1.30;;
15629;SDS011;7914;50.842;0.166;2023-06-26T09:51:37;6.88;;;1.65;;
15629;SDS011;7914;50.842;0.166;2023-06-26T09:54:05;6.53;;;1.70;;
15629;SDS011;7914;50.842;0.166;2023-06-26T09:56:31;4.72;;;1.00;;
15629;SDS011;7914;50.842;0.166;2023-06-26T09:58:58;10.70;;;2.05;;
15629;SDS011;7914;50.842;0.166;2023-06-26T10:01:26;5.60;;;1.30;;
15629;SDS011;7914;50.842;0.166;2023-06-26T10:03:53;4.28;;;1.10;;
15629;SDS011;7914;50.842;0.166;2023-06-26T10:06:24;5.25;;;1.60;;
15629;SDS011;7914;50.842;0.166;2023-06-26T10:08:54;6.20;;;1.30;;
15629;SDS011;7914;50.842;0.166;2023-06-26T10:11:21;5.65;;;1.10;;
15629;SDS011;7914;50.842;0.166;2023-06-26T10:13:50;4.68;;;1.33;;
15629;SDS011;7914;50.842;0.166;2023-06-26T10:16:26;4.75;;;1.20;;
15629;SDS011;7914;50.842;0.166;2023-06-26T10:18:55;6.45;;;1.60;;
15629;SDS011;7914;50.842;0.166;2023-06-26T10:21:24;5.97;;;1.88;;
15629;SDS011;7914;50.842;0.166;2023-06-26T10:23:51;7.85;;;2.10;;
15629;SDS011;7914;50.842;0.166;2023-06-26T10:26:19;8.75;;;1.70;;
15629;SDS011;7914;50.842;0.166;2023-06-26T10:28:46;7.80;;;1.70;;
15629;SDS011;7914;50.842;0.166;2023-06-26T10:31:15;8.05;;;1.80;;
15629;SDS011;7914;50.842;0.166;2023-06-26T10:33:41;5.22;;;1.45;;
15629;SDS011;7914;50.842;0.166;2023-06-26T10:36:14;8.15;;;1.80;;
15629;SDS011;7914;50.842;0.166;2023-06-26T10:39:01;5.88;;;2.33;;
15629;SDS011;7914;50.842;0.166;2023-06-26T10:41:36;9.43;;;2.10;;
15629;SDS011;7914;50.842;0.166;2023-06-26T10:44:10;9.73;;;1.65;;
15629;SDS011;7914;50.842;0.166;2023-06-26T10:49:15;7.40;;;1.50;;
15629;SDS011;7914;50.842;0.166;2023-06-26T10:51:48;7.60;;;2.00;;
15629;SDS011;7914;50.842;0.166;2023-06-26T10:54:16;7.10;;;1.90;;
15629;SDS011;7914;50.842;0.166;2023-06-26T10:56:46;7.80;;;2.33;;
15629;SDS011;7914;50.842;0.166;2023-06-26T10:59:16;9.50;;;2.60;;
15629;SDS011;7914;50.842;0.166;2023-06-26T11:01:44;9.50;;;2.00;;
15629;SDS011;7914;50.842;0.166;2023-06-26T11:04:12;8.73;;;1.80;;
15629;SDS011;7914;50.842;0.166;2023-06-26T11:06:40;7.93;;;1.77;;
15629;SDS011;7914;50.842;0.166;2023-06-26T11:09:10;7.85;;;1.92;;
15629;SDS011;7914;50.842;0.166;2023-06-26T11:16:46;6.07;;;1.48;;
15629;SDS011;7914;50.842;0.166;2023-06-26T11:19:12;4.47;;;1.40;;
15629;SDS011;7914;50.842;0.166;2023-06-26T11:21:39;5.38;;;1.65;;
15629;SDS011;7914;50.842;0.166;2023-06-26T11:24:08;7.03;;;1.70;;
15629;SDS011;7914;50.842;0.166;2023-06-26T11:26:41;6.03;;;2.10;;
15629;SDS011;7914;50.842;0.166;2023-06-26T11:29:09;7.88;;;1.75;;
15629;SDS011;7914;50.842;0.166;2023-06-26T11:31:36;7.13;;;1.65;;
15629;SDS011;7914;50.842;0.166;2023-06-26T11:34:03;9.10;;;2.00;;
15629;SDS011;7914;50.842;0.166;2023-06-26T11:36:31;6.80;;;1.83;;
15629;SDS011;7914;50.842;0.166;2023-06-26T11:38:57;9.68;;;2.03;;
15629;SDS011;7914;50.842;0.166;2023-06-26T11:41:25;8.48;;;2.08;;
15629;SDS011;7914;50.842;0.166;2023-06-26T11:43:53;8.60;;;1.52;;
15629;SDS011;7914;50.842;0.166;2023-06-26T11:46:22;6.43;;;1.25;;
15629;SDS011;7914;50.842;0.166;2023-06-26T11:48:48;6.85;;;1.45;;
15629;SDS011;7914;50.842;0.166;2023-06-26T11:51:15;8.05;;;2.40;;
15629;SDS011;7914;50.842;0.166;2023-06-26T11:53:41;7.43;;;1.90;;
15629;SDS011;7914;50.842;0.166;2023-06-26T11:56:11;12.55;;;1.90;;
15629;SDS011;7914;50.842;0.166;2023-06-26T12:04:10;10.57;;;2.00;;
15629;SDS011;7914;50.842;0.166;2023-06-26T12:06:38;7.90;;;1.42;;
15629;SDS011;7914;50.842;0.166;2023-06-26T12:09:07;12.93;;;2.00;;
15629;SDS011;7914;50.842;0.166;2023-06-26T12:11:37;9.82;;;2.10;;
15629;SDS011;7914;50.842;0.166;2023-06-26T12:14:05;7.55;;;1.45;;
15629;SDS011;7914;50.842;0.166;2023-06-26T12:16:32;7.55;;;1.67;;
15629;SDS011;7914;50.842;0.166;2023-06-26T12:19:00;7.30;;;1.70;;
15629;SDS011;7914;50.842;0.166;2023-06-26T12:21:33;10.18;;;1.83;;
15629;SDS011;7914;50.842;0.166;2023-06-26T12:24:18;8.00;;;1.55;;
15629;SDS011;7914;50.842;0.166;2023-06-26T12:26:47;6.40;;;1.58;;
15629;SDS011;7914;50.842;0.166;2023-06-26T12:29:19;8.85;;;1.90;;
15629;SDS011;7914;50.842;0.166;2023-06-26T12:34:17;8.85;;;2.10;;
15629;SDS011;7914;50.842;0.166;2023-06-26T12:36:45;8.77;;;2.00;;
15629;SDS011;7914;50.842;0.166;2023-06-26T12:39:16;8.10;;;1.77;;
15629;SDS011;7914;50.842;0.166;2023-06-26T12:41:45;8.27;;;1.60;;
15629;SDS011;7914;50.842;0.166;2023-06-26T12:44:18;11.07;;;1.88;;
15629;SDS011;7914;50.842;0.166;2023-06-26T12:46:46;9.60;;;2.08;;
15629;SDS011;7914;50.842;0.166;2023-06-26T12:49:19;9.70;;;1.75;;
15629;SDS011;7914;50.842;0.166;2023-06-26T12:51:46;5.68;;;1.80;;
15629;SDS011;7914;50.842;0.166;2023-06-26T12:54:13;7.47;;;1.73;;
15629;SDS011;7914;50.842;0.166;2023-06-26T12:56:39;8.90;;;1.75;;
15629;SDS011;7914;50.842;0.166;2023-06-26T12:59:04;6.82;;;1.80;;
15629;SDS011;7914;50.842;0.166;2023-06-26T13:01:30;7.65;;;1.92;;
15629;SDS011;7914;50.842;0.166;2023-06-26T13:03:56;9.75;;;2.00;;
15629;SDS011;7914;50.842;0.166;2023-06-26T13:06:22;7.57;;;1.80;;
15629;SDS011;7914;50.842;0.166;2023-06-26T13:08:48;9.95;;;2.05;;
15629;SDS011;7914;50.842;0.166;2023-06-26T13:11:13;12.70;;;2.35;;
15629;SDS011;7914;50.842;0.166;2023-06-26T13:13:42;11.15;;;2.17;;
15629;SDS011;7914;50.842;0.166;2023-06-26T13:16:07;8.23;;;2.00;;
15629;SDS011;7914;50.842;0.166;2023-06-26T13:18:33;10.82;;;2.15;;
15629;SDS011;7914;50.842;0.166;2023-06-26T13:20:59;14.40;;;2.30;;
15629;SDS011;7914;50.842;0.166;2023-06-26T13:23:25;8.02;;;1.70;;
15629;SDS011;7914;50.842;0.166;2023-06-26T13:25:51;11.25;;;2.60;;
15629;SDS011;7914;50.842;0.166;2023-06-26T13:28:18;8.00;;;1.77;;
15629;SDS011;7914;50.842;0.166;2023-06-26T13:30:43;6.70;;;2.00;;
15629;SDS011;7914;50.842;0.166;2023-06-26T13:33:09;9.95;;;1.83;;
15629;SDS011;7914;50.842;0.166;2023-06-26T13:35:36;12.50;;;2.33;;
15629;SDS011;7914;50.842;0.166;2023-06-26T13:38:02;9.48;;;1.85;;
15629;SDS011;7914;50.842;0.166;2023-06-26T13:40:27;6.78;;;1.55;;
15629;SDS011;7914;50.842;0.166;2023-06-26T13:42:53;12.35;;;1.80;;
15629;SDS011;7914;50.842;0.166;2023-06-26T13:45:19;11.63;;;2.28;;
15629;SDS011;7914;50.842;0.166;2023-06-26T13:47:46;7.43;;;1.65;;
15629;SDS011;7914;50.842;0.166;2023-06-26T13:50:11;10.02;;;1.40;;
15629;SDS011;7914;50.842;0.166;2023-06-26T13:52:37;17.33;;;2.10;;
15629;SDS011;7914;50.842;0.166;2023-06-26T13:55:03;9.05;;;2.05;;
15629;SDS011;7914;50.842;0.166;2023-06-26T13:57:29;9.18;;;2.28;;
15629;SDS011;7914;50.842;0.166;2023-06-26T13:59:56;9.30;;;1.92;;
15629;SDS011;7914;50.842;0.166;2023-06-26T14:02:22;7.10;;;1.88;;
15629;SDS011;7914;50.842;0.166;2023-06-26T14:04:48;7.88;;;1.65;;
15629;SDS011;7914;50.842;0.166;2023-06-26T14:07:13;10.68;;;1.75;;
15629;SDS011;7914;50.842;0.166;2023-06-26T14:09:40;8.60;;;1.95;;
15629;SDS011;7914;50.842;0.166;2023-06-26T14:12:06;11.20;;;2.25;;
15629;SDS011;7914;50.842;0.166;2023-06-26T14:14:33;9.55;;;2.13;;
15629;SDS011;7914;50.842;0.166;2023-06-26T14:16:59;9.27;;;1.70;;
15629;SDS011;7914;50.842;0.166;2023-06-26T14:19:25;9.48;;;1.80;;
15629;SDS011;7914;50.842;0.166;2023-06-26T14:21:53;8.20;;;1.80;;
15629;SDS011;7914;50.842;0.166;2023-06-26T14:24:19;6.88;;;1.45;;
15629;SDS011;7914;50.842;0.166;2023-06-26T14:26:44;7.05;;;1.77;;
15629;SDS011;7914;50.842;0.166;2023-06-26T14:29:10;13.70;;;1.95;;
15629;SDS011;7914;50.842;0.166;2023-06-26T14:31:36;9.40;;;2.00;;
15629;SDS011;7914;50.842;0.166;2023-06-26T14:34:02;13.75;;;2.33;;
15629;SDS011;7914;50.842;0.166;2023-06-26T14:36:28;6.95;;;1.63;;
15629;SDS011;7914;50.842;0.166;2023-06-26T14:38:56;8.38;;;2.00;;
15629;SDS011;7914;50.842;0.166;2023-06-26T14:41:21;8.38;;;1.88;;
15629;SDS011;7914;50.842;0.166;2023-06-26T14:43:47;9.05;;;2.10;;
15629;SDS011;7914;50.842;0.166;2023-06-26T14:46:13;9.23;;;2.40;;
15629;SDS011;7914;50.842;0.166;2023-06-26T14:48:39;11.75;;;1.88;;
15629;SDS011;7914;50.842;0.166;2023-06-26T14:51:05;10.35;;;2.60;;
15629;SDS011;7914;50.842;0.166;2023-06-26T14:53:30;7.97;;;1.88;;
15629;SDS011;7914;50.842;0.166;2023-06-26T14:55:56;11.13;;;2.40;;
15629;SDS011;7914;50.842;0.166;2023-06-26T14:58:22;10.98;;;2.28;;
15629;SDS011;7914;50.842;0.166;2023-06-26T15:00:47;10.90;;;3.70;;
15629;SDS011;7914;50.842;0.166;2023-06-26T15:03:13;13.70;;;5.40;;
15629;SDS011;7914;50.842;0.166;2023-06-26T15:05:39;14.93;;;6.43;;
15629;SDS011;7914;50.842;0.166;2023-06-26T15:08:05;11.70;;;5.00;;
15629;SDS011;7914;50.842;0.166;2023-06-26T15:10:30;15.48;;;6.20;;
15629;SDS011;7914;50.842;0.166;2023-06-26T15:12:56;42.45;;;35.88;;
15629;SDS011;7914;50.842;0.166;2023-06-26T15:15:22;30.13;;;23.23;;
15629;SDS011;7914;50.842;0.166;2023-06-26T15:17:48;17.65;;;6.88;;
15629;SDS011;7914;50.842;0.166;2023-06-26T15:20:14;11.20;;;5.68;;
15629;SDS011;7914;50.842;0.166;2023-06-26T15:22:40;9.63;;;4.25;;